• Join FlightAware (Why Join?)
  • Login
  • US Flag 
07:54AM EDT


 

Airport Tracker/Info


-or-


 

Live Flight TrackerFlight Track Log ✈ AAL1316 ✈ 22-Jun-2013 ✈ KIAH - KDFW

Flight Track Log - Related Links

Times and Time Zones

All times are in EDT time to prevent confusion due to time zone crossing. See the AAL1316 flight status page for this flight to view local times or setup timezone preferences in your user account.

Time Position Orientation Groundspeed Altitude Reporting Facility
EDT Latitude Longitude Course Direction KTS MPH feet Rate Location/Type
07:14PM 29.9681 -95.3428 North 191 220 1,100  Level Houston Center
07:15PM 30.0244 -95.3192 20° North 279 321 3,300 1,320 Climbing Houston Center
07:16PM 30.2350 -95.3124 North  Level FlightAware Approximate
07:16PM 30.0914 -95.3306 352° North 273 314 4,000  Level Houston Center
07:17PM 30.3191 -95.3054 North  Level FlightAware Approximate
07:17PM 30.1706 -95.3358 357° North 280 322 6,300  Level Houston Center
07:18PM 30.4033 -95.3000 North  Level FlightAware Approximate
07:18PM 30.2503 -95.3258 North 285 328 9,800  Level Houston Center
07:19PM 30.4876 -95.3000 North  Level FlightAware Approximate
07:19PM 30.3464 -95.3206 North 333 383 11,500  Level Houston Center
07:20PM 30.4553 -95.3136 North 374 430 14,400 3,000 Climbing Houston Center
07:21PM 30.5922 -95.3042 North 402 463 17,700 2,760 Climbing Houston Center
07:22PM 30.7122 -95.2964 North 421 484 20,100 2,400 Climbing Houston Center
07:23PM 30.8383 -95.2897 North 445 512 22,700 2,040 Climbing Houston Center
07:24PM 30.9644 -95.2814 North 450 518 24,400 1,800 Climbing Houston Center
07:25PM 31.0956 -95.2717 North 465 535 26,400 1,620 Climbing Houston Center
07:26PM 31.2269 -95.2631 North 468 539 27,800 720 Climbing Houston Center
07:27PM 31.3522 -95.2781 354° North 455 524 27,900  Climbing Houston Center
07:28PM 31.4408 -95.3844 314° West 455 524 27,900  Level Houston Center
07:29PM 31.5317 -95.4856 317° Northwest 450 518 27,900  Level Houston Center
07:30PM 31.6231 -95.5856 317° Northwest 448 516 27,900  Level Houston Center
07:31PM 31.7119 -95.6853 316° Northwest 441 507 27,900 -540 Level Houston Center
07:32PM 31.8194 -95.8061 316° Northwest 444 511 26,800 -1,080 Descending Houston Center
07:33PM 31.9131 -95.9089 317° Northwest 457 526 25,700 -1,260 Descending Houston Center
07:34PM 32.0053 -96.0131 316° Northwest 457 526 24,300 -1,860 Descending Houston Center
07:35PM 32.0944 -96.1119 317° Northwest 444 511 21,900 -2,520 Descending Houston Center
07:36PM 32.1953 -96.2300 315° West 429 494 18,800 -2,640 Descending Fort Worth Center
07:37PM 32.2775 -96.3272 315° West 424 488 16,200 -2,520 Descending Fort Worth Center
07:38PM 32.3578 -96.4197 316° Northwest 407 468 13,800 -2,280 Descending Fort Worth Center
07:39PM 32.4336 -96.5125 314° West 395 455 11,700 -1,380 Descending Fort Worth Center
07:40PM 32.5114 -96.6053 315° West 395 455 11,100 -360 Descending Fort Worth Center
07:41PM 32.5872 -96.6958 315° West 395 455 11,000 -120 Descending Fort Worth Center
07:42PM 32.6333 -96.7500 315° West 383 441 11,000  Level Dallas / Fort Worth TRACON
07:43PM 32.7000 -96.8333 314° West 299 344 11,000  Level Dallas / Fort Worth TRACON
07:44PM 32.7500 -96.9000 312° West 266 306 11,000 -660 Level Dallas / Fort Worth TRACON
07:45PM 32.8333 -96.9000 360° North 267 307 9,700 -1,620 Descending Dallas / Fort Worth TRACON
07:46PM 32.9000 -96.9000 360° North 258 297 7,600 -2,040 Descending Dallas / Fort Worth TRACON
07:47PM 32.9667 -96.9000 360° North 252 290 5,900 -1,500 Descending Dallas / Fort Worth TRACON
07:48PM 33.0333 -96.9167 348° North 213 245 4,700 -1,200 Descending Dallas / Fort Worth TRACON
07:49PM 33.0667 -96.9667 309° West 185 213 3,500 -1,380 Descending Dallas / Fort Worth TRACON